Time;durP1;ratioP1;P1;durP2;ratioP2;P2;SDS_P1;SDS_P2;PMS_P1;PMS_P2;Temp;Humidity;BMP_temperature;BMP_pressure;BME280_temperature;BME280_humidity;BME280_pressure;Samples;Min_cycle;Max_cycle;Signal;HPM_P1;HPM_P2
2023/07/30 00:01:19;;;;;;;9.77;2.97;;;21.00;94.40;;;;;;5094168;28;20131;-77
2023/07/30 00:03:45;;;;;;;7.88;2.60;;;21.00;94.50;;;;;;5084799;28;20020;-76
2023/07/30 00:06:10;;;;;;;5.40;1.70;;;21.00;94.50;;;;;;5085293;28;20032;-76
2023/07/30 00:08:36;;;;;;;8.25;2.28;;;21.00;94.60;;;;;;5076490;28;20027;-74
2023/07/30 00:11:01;;;;;;;9.80;2.17;;;20.90;94.70;;;;;;5074192;28;20025;-74
2023/07/30 00:13:27;;;;;;;12.38;2.83;;;21.00;94.70;;;;;;5074101;28;20040;-77
2023/07/30 00:15:52;;;;;;;5.88;2.05;;;20.90;94.80;;;;;;5078558;28;20020;-77
2023/07/30 00:18:19;;;;;;;8.65;2.75;;;20.90;94.90;;;;;;5091864;28;20028;-76
2023/07/30 00:20:44;;;;;;;9.40;2.50;;;20.90;95.00;;;;;;5092356;28;20077;-76
2023/07/30 00:23:10;;;;;;;14.05;3.00;;;20.90;95.00;;;;;;5093373;28;20028;-75
2023/07/30 00:25:36;;;;;;;9.57;2.95;;;20.90;95.00;;;;;;5092714;28;20032;-78
2023/07/30 00:28:02;;;;;;;7.82;2.63;;;20.80;95.00;;;;;;5092693;28;20036;-76
2023/07/30 00:30:28;;;;;;;13.23;3.00;;;20.80;95.10;;;;;;5092818;28;20020;-77
2023/07/30 00:32:53;;;;;;;11.13;3.08;;;20.70;95.20;;;;;;5092049;28;20036;-77
2023/07/30 00:35:19;;;;;;;10.77;2.83;;;20.80;95.30;;;;;;5093408;28;20107;-77
2023/07/30 00:37:45;;;;;;;9.48;2.45;;;20.80;95.30;;;;;;5093316;28;20016;-77
2023/07/30 00:40:11;;;;;;;8.95;2.63;;;20.80;95.30;;;;;;5093063;28;20107;-74
2023/07/30 00:42:37;;;;;;;13.35;2.53;;;20.70;95.40;;;;;;5093267;28;20021;-75
2023/07/30 00:45:03;;;;;;;11.35;3.28;;;20.70;95.40;;;;;;5092874;28;20028;-74
2023/07/30 00:47:28;;;;;;;8.75;2.53;;;20.70;95.40;;;;;;5093581;28;20070;-75
2023/07/30 00:49:54;;;;;;;9.13;2.90;;;20.70;95.50;;;;;;5093374;28;20020;-73
2023/07/30 00:52:22;;;;;;;12.63;2.92;;;20.60;95.50;;;;;;5092121;28;20016;-75
2023/07/30 00:54:49;;;;;;;12.30;2.67;;;20.60;95.60;;;;;;5092729;28;20065;-77
2023/07/30 00:57:16;;;;;;;12.40;2.90;;;20.60;95.60;;;;;;5093387;28;20469;-77
2023/07/30 00:59:43;;;;;;;9.18;2.75;;;20.50;95.70;;;;;;5092896;28;20358;-77
2023/07/30 01:02:08;;;;;;;10.55;2.83;;;20.50;95.70;;;;;;5093310;28;20036;-77
2023/07/30 01:04:37;;;;;;;12.27;3.00;;;20.50;95.80;;;;;;5092958;28;20074;-76
2023/07/30 01:07:02;;;;;;;10.85;2.47;;;20.50;95.80;;;;;;5093037;28;20021;-77
2023/07/30 01:09:28;;;;;;;8.63;2.35;;;20.50;95.90;;;;;;5092801;28;20566;-77
2023/07/30 01:11:55;;;;;;;10.70;2.97;;;20.50;95.90;;;;;;5093209;28;20020;-75
2023/07/30 01:14:22;;;;;;;8.70;2.67;;;20.50;96.00;;;;;;5093210;28;20016;-74
2023/07/30 01:16:48;;;;;;;10.23;2.50;;;20.40;96.00;;;;;;5093200;28;20066;-74
2023/07/30 01:19:14;;;;;;;10.90;2.88;;;20.40;96.00;;;;;;5093009;28;20056;-73
2023/07/30 01:21:40;;;;;;;8.68;2.33;;;20.40;96.10;;;;;;5093055;28;20070;-76
2023/07/30 01:24:05;;;;;;;10.63;2.90;;;20.40;96.10;;;;;;5092541;28;20473;-76
2023/07/30 01:26:45;;;;;;;11.88;3.20;;;20.30;96.20;;;;;;5092967;28;20032;-76
2023/07/30 01:29:21;;;;;;;13.88;3.08;;;20.30;96.20;;;;;;5091712;28;20056;-77
2023/07/30 01:31:59;;;;;;;11.27;2.90;;;20.40;96.30;;;;;;5092708;28;20063;-76
2023/07/30 01:34:27;;;;;;;13.95;3.10;;;20.30;96.30;;;;;;5092836;28;20024;-76
2023/07/30 01:36:54;;;;;;;14.05;2.75;;;20.30;96.40;;;;;;5093411;28;20028;-76
2023/07/30 01:39:20;;;;;;;13.23;3.22;;;20.30;96.40;;;;;;5096484;28;20376;-77
2023/07/30 01:41:46;;;;;;;13.90;3.58;;;20.30;96.50;;;;;;5096721;28;20103;-76
2023/07/30 01:44:11;;;;;;;13.68;2.70;;;20.30;96.50;;;;;;5095247;28;20052;-76
2023/07/30 01:46:37;;;;;;;11.80;3.17;;;20.20;96.60;;;;;;5096665;28;20469;-76
2023/07/30 01:49:03;;;;;;;11.48;2.72;;;20.20;96.60;;;;;;5096677;28;20041;-76
2023/07/30 01:51:28;;;;;;;13.48;3.13;;;20.20;96.60;;;;;;5096427;28;20043;-76
2023/07/30 01:53:54;;;;;;;12.27;2.83;;;20.20;96.60;;;;;;5096224;28;20020;-77
2023/07/30 01:56:20;;;;;;;14.70;2.30;;;20.20;96.60;;;;;;5096440;28;20024;-76
2023/07/30 01:58:45;;;;;;;13.90;3.20;;;20.20;96.70;;;;;;5096502;28;20016;-77
2023/07/30 02:01:11;;;;;;;11.95;2.67;;;20.20;96.70;;;;;;5096588;28;20031;-77
2023/07/30 02:03:36;;;;;;;10.85;2.50;;;20.20;96.70;;;;;;5097579;28;20591;-76
2023/07/30 02:06:02;;;;;;;14.05;3.35;;;20.10;96.80;;;;;;5096109;28;20028;-76
2023/07/30 02:08:27;;;;;;;12.45;3.00;;;20.10;96.90;;;;;;5096104;28;20024;-77
2023/07/30 02:11:00;;;;;;;15.23;2.97;;;20.00;96.90;;;;;;5096089;28;20036;-74
2023/07/30 02:13:26;;;;;;;16.52;2.90;;;20.00;97.00;;;;;;5096202;28;20016;-73
2023/07/30 02:15:51;;;;;;;10.05;2.72;;;20.00;97.00;;;;;;5095905;28;20022;-76
2023/07/30 02:18:17;;;;;;;12.90;2.53;;;20.00;97.10;;;;;;5096053;28;20026;-74
2023/07/30 02:20:42;;;;;;;13.75;3.72;;;20.00;97.10;;;;;;5095893;28;20028;-74
2023/07/30 02:23:08;;;;;;;14.25;3.28;;;20.00;97.10;;;;;;5095614;28;20031;-73
2023/07/30 02:25:34;;;;;;;11.38;3.00;;;20.00;97.20;;;;;;5095801;28;20039;-76
2023/07/30 02:28:01;;;;;;;19.20;3.47;;;20.00;97.20;;;;;;5096016;28;20016;-77
2023/07/30 02:30:28;;;;;;;13.05;3.38;;;19.90;97.30;;;;;;5095681;28;20071;-77
2023/07/30 02:32:53;;;;;;;15.00;3.08;;;19.90;97.40;;;;;;5095566;28;20414;-76
2023/07/30 02:35:19;;;;;;;12.75;2.92;;;19.90;97.50;;;;;;5095585;28;20028;-77
2023/07/30 02:37:44;;;;;;;15.02;3.47;;;19.80;97.60;;;;;;5095350;28;20025;-76
2023/07/30 02:40:10;;;;;;;15.55;3.10;;;19.80;97.70;;;;;;5094428;28;20028;-73
2023/07/30 02:42:36;;;;;;;15.20;3.17;;;19.80;97.90;;;;;;5095202;28;20028;-73
2023/07/30 02:45:02;;;;;;;13.65;3.30;;;19.80;97.90;;;;;;5095407;28;20039;-73
2023/07/30 02:47:27;;;;;;;11.77;2.95;;;19.80;97.90;;;;;;5095442;28;20016;-73
2023/07/30 02:49:53;;;;;;;12.52;2.78;;;19.80;98.00;;;;;;5095348;28;20054;-75
2023/07/30 02:52:18;;;;;;;14.77;2.78;;;19.80;98.00;;;;;;5095032;28;20016;-73
2023/07/30 02:54:44;;;;;;;14.38;3.90;;;19.80;98.10;;;;;;5095357;28;20498;-76
2023/07/30 02:57:11;;;;;;;13.07;2.70;;;19.80;98.10;;;;;;5095353;28;20472;-76
2023/07/30 02:59:37;;;;;;;14.00;3.90;;;19.80;98.10;;;;;;5095039;28;20518;-76
2023/07/30 03:02:04;;;;;;;11.80;3.10;;;19.80;98.10;;;;;;5094976;28;20028;-75
2023/07/30 03:04:30;;;;;;;13.32;3.15;;;19.80;98.20;;;;;;5095154;28;20491;-76
2023/07/30 03:06:56;;;;;;;24.30;4.45;;;19.70;98.20;;;;;;5094796;28;20028;-76
2023/07/30 03:09:22;;;;;;;17.10;3.10;;;19.70;98.20;;;;;;5095191;28;20024;-76
2023/07/30 03:11:48;;;;;;;16.42;3.08;;;19.80;98.50;;;;;;5094978;28;20521;-76
2023/07/30 03:14:14;;;;;;;16.38;3.25;;;19.80;98.30;;;;;;5094891;28;20469;-76
2023/07/30 03:16:40;;;;;;;13.93;2.78;;;19.70;98.30;;;;;;5094740;28;20035;-76
2023/07/30 03:19:05;;;;;;;14.18;2.80;;;19.70;98.30;;;;;;5094945;28;20081;-76
2023/07/30 03:21:31;;;;;;;13.80;3.08;;;19.70;98.40;;;;;;5094716;28;20050;-75
2023/07/30 03:23:56;;;;;;;12.05;3.08;;;19.60;98.50;;;;;;5094607;28;20549;-76
2023/07/30 03:26:22;;;;;;;14.57;3.10;;;19.60;98.60;;;;;;5094790;28;20434;-76
2023/07/30 03:28:47;;;;;;;16.88;3.17;;;19.60;98.60;;;;;;5094474;28;20435;-76
2023/07/30 03:31:13;;;;;;;12.88;2.90;;;19.60;98.60;;;;;;5094704;28;20054;-76
2023/07/30 03:33:43;;;;;;;15.77;2.90;;;19.60;98.60;;;;;;5094455;28;20483;-75
2023/07/30 03:36:13;;;;;;;16.77;3.53;;;19.60;99.00;;;;;;5094379;28;20036;-75
2023/07/30 03:38:39;;;;;;;14.00;3.30;;;19.50;99.00;;;;;;5094549;28;20023;-75
2023/07/30 03:41:06;;;;;;;14.85;3.42;;;19.60;98.70;;;;;;5094556;28;20032;-76
2023/07/30 03:43:32;;;;;;;16.77;3.08;;;19.60;98.80;;;;;;5094288;28;20404;-76
2023/07/30 03:45:57;;;;;;;18.05;3.28;;;19.60;98.80;;;;;;5094107;28;20485;-76
2023/07/30 03:48:23;;;;;;;20.48;3.55;;;19.50;98.80;;;;;;5094288;28;20099;-76
2023/07/30 03:50:48;;;;;;;11.95;3.35;;;19.60;99.20;;;;;;5094029;28;20472;-75
2023/07/30 03:53:14;;;;;;;14.73;3.38;;;19.60;99.00;;;;;;5094286;28;20411;-76
2023/07/30 03:55:40;;;;;;;17.05;3.72;;;19.50;99.00;;;;;;5094087;28;20084;-75
2023/07/30 03:58:06;;;;;;;16.50;3.28;;;19.50;99.00;;;;;;5094075;28;20020;-76
2023/07/30 04:00:31;;;;;;;15.80;3.78;;;19.50;99.00;;;;;;5093350;28;20043;-76
2023/07/30 04:02:57;;;;;;;12.63;2.70;;;19.50;99.00;;;;;;5093902;28;20020;-76
2023/07/30 04:05:22;;;;;;;17.65;4.40;;;19.50;99.10;;;;;;5092437;28;20039;-76
2023/07/30 04:07:48;;;;;;;16.02;3.47;;;19.50;99.10;;;;;;5093676;28;20024;-76
2023/07/30 04:10:13;;;;;;;11.75;2.55;;;19.50;99.20;;;;;;5094108;28;20511;-76
2023/07/30 04:12:39;;;;;;;14.85;3.42;;;19.40;99.20;;;;;;5093827;28;20081;-76
2023/07/30 04:15:05;;;;;;;18.65;3.53;;;19.40;99.30;;;;;;5093608;28;20024;-76
2023/07/30 04:17:31;;;;;;;18.17;3.22;;;19.40;99.30;;;;;;5093740;28;20039;-76
2023/07/30 04:19:56;;;;;;;14.30;3.60;;;19.50;99.30;;;;;;5093430;28;20105;-77
2023/07/30 04:22:22;;;;;;;11.65;2.95;;;19.40;99.30;;;;;;5094084;28;20093;-77
2023/07/30 04:24:47;;;;;;;11.90;2.83;;;19.40;99.40;;;;;;5094790;28;20024;-76
2023/07/30 04:27:13;;;;;;;20.02;4.03;;;19.40;99.40;;;;;;5093928;28;20073;-76
2023/07/30 04:29:39;;;;;;;16.02;3.10;;;19.40;99.40;;;;;;5092290;28;20073;-76
2023/07/30 04:32:05;;;;;;;17.00;3.20;;;19.40;99.50;;;;;;5093244;28;20043;-74
2023/07/30 04:34:30;;;;;;;13.98;3.05;;;19.40;99.50;;;;;;5093428;28;20492;-75
2023/07/30 04:36:56;;;;;;;20.20;3.92;;;19.30;99.50;;;;;;5093574;28;20020;-76
2023/07/30 04:39:21;;;;;;;14.68;3.42;;;19.40;99.60;;;;;;5093502;28;20034;-76
2023/07/30 04:41:47;;;;;;;18.00;3.25;;;19.40;99.60;;;;;;5093415;28;20024;-75
2023/07/30 04:44:12;;;;;;;19.33;3.83;;;19.30;99.70;;;;;;5093164;28;20024;-76
2023/07/30 04:46:38;;;;;;;14.10;3.40;;;19.30;99.70;;;;;;5093245;28;20032;-75
2023/07/30 04:49:04;;;;;;;16.20;3.90;;;19.30;99.70;;;;;;5093170;28;20085;-76
2023/07/30 04:51:29;;;;;;;15.82;3.28;;;19.30;99.80;;;;;;5093571;28;20024;-76
2023/07/30 04:53:55;;;;;;;13.93;3.17;;;19.30;99.80;;;;;;5093336;28;20425;-76
2023/07/30 04:56:21;;;;;;;20.20;4.00;;;19.30;99.80;;;;;;5093471;28;20497;-76
2023/07/30 04:58:46;;;;;;;15.35;4.05;;;19.30;99.90;;;;;;5092806;28;20028;-75
2023/07/30 05:01:12;;;;;;;16.92;3.13;;;19.30;99.90;;;;;;5083495;28;20028;-76
2023/07/30 05:03:37;;;;;;;21.05;3.38;;;19.30;99.90;;;;;;5072619;28;20012;-76
2023/07/30 05:06:03;;;;;;;17.30;3.28;;;19.30;99.90;;;;;;5071388;28;20362;-76
2023/07/30 05:08:28;;;;;;;16.42;3.33;;;19.30;99.90;;;;;;5073065;28;20039;-76
2023/07/30 05:10:54;;;;;;;14.35;3.30;;;19.30;99.90;;;;;;5072779;28;20025;-76
2023/07/30 05:13:19;;;;;;;14.82;3.40;;;19.30;99.90;;;;;;5075965;28;20473;-76
2023/07/30 05:15:45;;;;;;;12.00;3.45;;;19.30;99.90;;;;;;5076748;28;20082;-75
2023/07/30 05:18:11;;;;;;;13.75;2.85;;;19.30;99.90;;;;;;5077074;28;20021;-76
2023/07/30 05:20:36;;;;;;;16.02;3.47;;;19.30;99.90;;;;;;5076978;28;20024;-76
2023/07/30 05:23:02;;;;;;;13.48;3.20;;;19.20;99.90;;;;;;5076771;28;20142;-76
2023/07/30 05:25:28;;;;;;;17.73;4.07;;;19.20;99.90;;;;;;5075402;28;20036;-76
2023/07/30 05:27:53;;;;;;;21.13;3.65;;;19.20;99.90;;;;;;5076716;28;20025;-75
2023/07/30 05:30:19;;;;;;;14.90;3.00;;;19.30;99.90;;;;;;5076649;28;20101;-75
2023/07/30 05:32:44;;;;;;;16.75;3.60;;;19.20;99.90;;;;;;5076763;28;20024;-76
2023/07/30 05:35:10;;;;;;;17.75;3.40;;;19.30;99.90;;;;;;5076347;28;20062;-76
2023/07/30 05:37:35;;;;;;;15.18;3.40;;;19.30;99.90;;;;;;5076469;28;20060;-75
2023/07/30 05:40:01;;;;;;;13.35;3.67;;;19.30;99.90;;;;;;5075109;28;20020;-76
2023/07/30 05:42:26;;;;;;;17.98;4.00;;;19.30;99.90;;;;;;5076525;28;20024;-76
2023/07/30 05:44:52;;;;;;;20.60;4.72;;;19.30;99.90;;;;;;5075706;28;20040;-75
2023/07/30 05:47:18;;;;;;;16.02;3.22;;;19.20;99.90;;;;;;5075010;28;20488;-76
2023/07/30 05:49:43;;;;;;;15.48;3.63;;;19.30;99.90;;;;;;5076243;28;20036;-76
2023/07/30 05:52:09;;;;;;;18.05;3.88;;;19.30;99.90;;;;;;5076238;28;20031;-76
2023/07/30 05:54:34;;;;;;;16.05;3.78;;;19.30;99.90;;;;;;5076315;28;20427;-75
2023/07/30 05:57:00;;;;;;;16.58;3.75;;;19.30;99.90;;;;;;5076186;28;20033;-75
2023/07/30 05:59:25;;;;;;;15.95;3.85;;;19.30;99.90;;;;;;5075632;28;20024;-75
2023/07/30 06:01:51;;;;;;;14.30;3.47;;;19.30;99.90;;;;;;5076242;28;20029;-73
2023/07/30 06:04:16;;;;;;;20.33;3.80;;;19.30;99.90;;;;;;5075983;28;20023;-75
2023/07/30 06:06:42;;;;;;;21.65;4.55;;;19.30;99.90;;;;;;5076003;28;20405;-73
2023/07/30 06:09:07;;;;;;;16.08;3.92;;;19.30;99.90;;;;;;5076040;28;20016;-75
2023/07/30 06:11:33;;;;;;;16.80;4.32;;;19.30;99.90;;;;;;5075958;28;20020;-75
2023/07/30 06:13:59;;;;;;;18.20;3.55;;;19.30;99.90;;;;;;5075572;28;20537;-76
2023/07/30 06:16:24;;;;;;;17.65;3.83;;;19.30;99.90;;;;;;5075776;28;20043;-75
2023/07/30 06:18:50;;;;;;;13.80;3.70;;;19.40;99.90;;;;;;5075895;28;20375;-75
2023/07/30 06:21:15;;;;;;;13.77;3.20;;;19.40;99.90;;;;;;5078110;28;20477;-76
2023/07/30 06:23:41;;;;;;;12.20;2.58;;;19.40;99.90;;;;;;5087088;28;20032;-76
2023/07/30 06:26:06;;;;;;;12.23;3.08;;;19.40;99.90;;;;;;5075562;28;20068;-76
2023/07/30 06:28:32;;;;;;;15.48;3.35;;;19.50;99.90;;;;;;5079099;28;20027;-76
2023/07/30 06:31:04;;;;;;;12.43;2.55;;;19.60;99.90;;;;;;5080801;28;20039;-76
2023/07/30 06:33:30;;;;;;;12.75;3.38;;;19.60;99.90;;;;;;5077887;28;20020;-75
2023/07/30 06:35:55;;;;;;;14.15;3.00;;;19.60;99.90;;;;;;5081133;28;20169;-76
2023/07/30 06:38:22;;;;;;;12.57;3.55;;;19.60;99.90;;;;;;5081700;28;20024;-76
2023/07/30 06:40:47;;;;;;;14.40;3.28;;;19.70;99.90;;;;;;5090412;28;20028;-75
2023/07/30 06:43:13;;;;;;;19.58;3.53;;;19.70;99.90;;;;;;5080677;28;20036;-76
2023/07/30 06:45:38;;;;;;;12.90;3.53;;;19.70;99.90;;;;;;5079546;28;20063;-76
2023/07/30 06:48:04;;;;;;;14.80;2.95;;;19.70;99.90;;;;;;5083905;28;20473;-76
2023/07/30 06:50:30;;;;;;;13.55;3.63;;;19.80;99.90;;;;;;5078300;28;20060;-75
2023/07/30 06:52:55;;;;;;;12.40;2.67;;;19.80;99.90;;;;;;5074775;28;20094;-75
2023/07/30 06:55:21;;;;;;;14.60;3.30;;;19.80;99.90;;;;;;5074978;28;20070;-75
2023/07/30 06:57:46;;;;;;;14.48;3.10;;;19.80;99.90;;;;;;5074356;28;20020;-78
2023/07/30 07:00:12;;;;;;;14.18;3.58;;;19.90;99.90;;;;;;5084240;28;20033;-77
2023/07/30 07:02:38;;;;;;;19.38;3.70;;;19.90;99.90;;;;;;5079381;28;20060;-76
2023/07/30 07:05:05;;;;;;;13.73;2.92;;;19.90;99.90;;;;;;5076981;28;20077;-76
2023/07/30 07:07:30;;;;;;;12.15;3.15;;;20.00;99.90;;;;;;5072669;28;20447;-78
2023/07/30 07:09:56;;;;;;;11.85;3.10;;;20.00;99.90;;;;;;5076593;28;20064;-81
2023/07/30 07:12:21;;;;;;;13.02;3.28;;;20.00;99.90;;;;;;5076758;28;20051;-77
2023/07/30 07:14:48;;;;;;;12.75;3.13;;;20.00;99.90;;;;;;5079555;28;20028;-77
2023/07/30 07:17:14;;;;;;;16.15;3.65;;;20.00;99.90;;;;;;5089552;28;20012;-77
2023/07/30 07:19:39;;;;;;;15.55;3.60;;;20.10;99.90;;;;;;5075760;28;20073;-78
2023/07/30 07:22:05;;;;;;;11.18;3.05;;;20.10;99.90;;;;;;5083763;28;20052;-76
2023/07/30 07:24:31;;;;;;;18.45;3.90;;;20.10;99.90;;;;;;5074610;28;20070;-76
2023/07/30 07:26:57;;;;;;;13.45;3.17;;;20.20;99.90;;;;;;5076521;28;20029;-74
2023/07/30 07:29:22;;;;;;;14.85;3.58;;;20.20;99.90;;;;;;5087504;28;20111;-74
2023/07/30 07:31:48;;;;;;;11.80;2.53;;;20.20;99.90;;;;;;5077710;28;20074;-76
2023/07/30 07:34:13;;;;;;;11.27;2.97;;;20.20;99.90;;;;;;5074582;28;20075;-74
2023/07/30 07:36:39;;;;;;;11.65;2.80;;;20.30;99.80;;;;;;5073238;28;20549;-75
2023/07/30 07:39:05;;;;;;;14.05;2.97;;;20.30;99.80;;;;;;5076853;28;20020;-76
2023/07/30 07:41:30;;;;;;;13.90;3.55;;;20.30;99.80;;;;;;5083304;28;20028;-75
2023/07/30 07:43:56;;;;;;;10.95;3.10;;;20.30;99.70;;;;;;5080340;28;20020;-75
2023/07/30 07:46:22;;;;;;;15.10;3.03;;;20.40;99.70;;;;;;5077725;28;20028;-74
2023/07/30 07:48:47;;;;;;;13.60;3.30;;;20.40;99.60;;;;;;5078754;28;20115;-76
2023/07/30 07:51:13;;;;;;;12.63;3.10;;;20.40;99.50;;;;;;5085751;28;20025;-74
2023/07/30 07:53:39;;;;;;;12.77;3.13;;;20.40;99.50;;;;;;5076906;28;20025;-73
2023/07/30 07:56:04;;;;;;;12.20;3.22;;;20.50;99.50;;;;;;5080328;28;20032;-76
2023/07/30 07:58:31;;;;;;;11.50;2.65;;;20.50;99.40;;;;;;5079311;28;20388;-77
2023/07/30 08:00:57;;;;;;;15.73;3.33;;;20.50;99.30;;;;;;5080237;28;20473;-75
2023/07/30 08:03:23;;;;;;;11.48;3.20;;;20.50;99.30;;;;;;5079311;28;20035;-77
2023/07/30 08:05:49;;;;;;;12.60;3.08;;;20.60;99.30;;;;;;5078171;28;20025;-77
2023/07/30 08:08:15;;;;;;;13.82;3.40;;;20.60;99.60;;;;;;5076678;28;20016;-76
2023/07/30 08:10:43;;;;;;;13.10;3.47;;;20.60;99.20;;;;;;5073796;28;20028;-77
2023/07/30 08:13:10;;;;;;;10.18;2.63;;;20.60;99.10;;;;;;5069991;28;20032;-76
2023/07/30 08:15:36;;;;;;;12.52;3.15;;;20.60;99.10;;;;;;5072869;28;20028;-75
2023/07/30 08:18:01;;;;;;;9.70;2.65;;;20.70;99.00;;;;;;5074207;28;20487;-76
2023/07/30 08:20:27;;;;;;;10.45;2.67;;;20.70;98.90;;;;;;5072474;28;20513;-76
2023/07/30 08:22:52;;;;;;;13.80;3.05;;;20.70;98.90;;;;;;5073696;28;20024;-76
2023/07/30 08:25:18;;;;;;;9.85;2.88;;;20.70;98.80;;;;;;5072590;28;20378;-74
2023/07/30 08:27:44;;;;;;;11.18;2.90;;;20.70;98.70;;;;;;5079330;28;20576;-77
2023/07/30 08:30:10;;;;;;;15.35;3.13;;;20.80;98.80;;;;;;5079061;28;20036;-76
2023/07/30 08:32:36;;;;;;;12.45;3.05;;;20.80;98.80;;;;;;5075441;28;20068;-76
2023/07/30 08:35:02;;;;;;;10.07;2.58;;;20.80;98.80;;;;;;5080892;28;20473;-77
2023/07/30 08:37:28;;;;;;;12.25;2.58;;;20.90;98.50;;;;;;5075043;28;20066;-74
2023/07/30 08:39:53;;;;;;;10.45;2.65;;;20.90;98.50;;;;;;5069910;28;20257;-77
2023/07/30 08:42:19;;;;;;;9.52;2.22;;;20.90;98.40;;;;;;5072303;28;20487;-75
2023/07/30 08:44:45;;;;;;;10.85;2.15;;;20.90;98.30;;;;;;5080377;28;20123;-76
2023/07/30 08:47:11;;;;;;;10.48;2.17;;;20.90;98.20;;;;;;5069475;28;20055;-70
2023/07/30 08:49:36;;;;;;;11.07;2.60;;;21.00;98.00;;;;;;5075580;28;20086;-75
2023/07/30 08:52:03;;;;;;;7.68;1.85;;;21.00;97.70;;;;;;5068195;28;20052;-75
2023/07/30 08:54:31;;;;;;;7.43;1.70;;;21.00;97.60;;;;;;5074610;28;20430;-75
2023/07/30 08:56:58;;;;;;;11.23;2.75;;;21.00;97.40;;;;;;5075041;28;20151;-76
2023/07/30 08:59:27;;;;;;;11.90;2.42;;;21.10;97.40;;;;;;5069588;28;20037;-75
2023/07/30 09:01:53;;;;;;;8.13;2.15;;;21.10;97.20;;;;;;5071636;28;20052;-75
2023/07/30 09:04:20;;;;;;;8.45;2.15;;;21.10;97.20;;;;;;5071287;28;20046;-75
2023/07/30 09:06:50;;;;;;;10.38;2.03;;;21.10;97.10;;;;;;5071845;28;20094;-75
2023/07/30 09:09:15;;;;;;;7.07;1.65;;;21.20;97.10;;;;;;5073844;28;20030;-75
2023/07/30 09:11:41;;;;;;;7.50;2.05;;;21.20;96.90;;;;;;5075096;28;20119;-75
2023/07/30 09:14:07;;;;;;;5.00;1.35;;;21.20;96.80;;;;;;5075677;28;20435;-76
2023/07/30 09:16:33;;;;;;;8.25;2.25;;;21.20;96.60;;;;;;5086784;28;20016;-76
2023/07/30 09:18:59;;;;;;;5.22;1.58;;;21.30;96.60;;;;;;5072974;28;20043;-75
2023/07/30 09:21:32;;;;;;;10.20;2.20;;;21.30;96.20;;;;;;5086930;28;20393;-76
2023/07/30 09:24:05;;;;;;;6.78;1.63;;;21.30;96.40;;;;;;5085309;28;20055;-74
2023/07/30 09:26:44;;;;;;;7.05;1.38;;;21.30;96.30;;;;;;5092900;28;20107;-74
2023/07/30 09:29:10;;;;;;;4.70;1.40;;;21.30;96.20;;;;;;5076377;28;20064;-74
2023/07/30 09:31:54;;;;;;;4.95;1.10;;;21.30;96.00;;;;;;5074946;28;20047;-76
2023/07/30 09:34:21;;;;;;;7.65;1.15;;;21.40;95.90;;;;;;5073936;28;20031;-75
2023/07/30 09:36:50;;;;;;;7.63;1.50;;;21.40;95.90;;;;;;5072174;28;20108;-73
2023/07/30 09:39:22;;;;;;;8.57;1.65;;;21.40;95.80;;;;;;5081221;28;20055;-76
2023/07/30 09:41:50;;;;;;;5.43;1.05;;;21.40;95.60;;;;;;5070063;28;20048;-76
2023/07/30 09:44:18;;;;;;;5.75;1.40;;;21.50;95.50;;;;;;5077294;28;20532;-76
2023/07/30 09:46:45;;;;;;;7.70;1.35;;;21.50;95.20;;;;;;5088648;28;20089;-75
2023/07/30 09:49:11;;;;;;;6.60;1.80;;;21.50;95.20;;;;;;5090326;28;20481;-75
2023/07/30 09:51:39;;;;;;;10.95;1.52;;;21.50;95.10;;;;;;5087009;28;20035;-74
2023/07/30 09:54:07;;;;;;;4.78;1.00;;;21.60;95.10;;;;;;5076371;28;20115;-75
2023/07/30 09:56:33;;;;;;;6.93;1.40;;;21.50;94.90;;;;;;5085296;28;20103;-75
2023/07/30 09:58:58;;;;;;;5.13;1.35;;;21.60;94.90;;;;;;5092841;28;20445;-73
2023/07/30 10:01:26;;;;;;;4.15;1.23;;;21.60;94.80;;;;;;5091509;28;20040;-75
2023/07/30 10:03:57;;;;;;;5.13;1.40;;;21.60;94.70;;;;;;5073960;28;20024;-74
2023/07/30 10:06:28;;;;;;;6.18;1.38;;;21.70;94.70;;;;;;5081281;28;20070;-75
2023/07/30 10:08:58;;;;;;;4.03;1.25;;;21.70;94.50;;;;;;5082304;28;20366;-74
2023/07/30 10:11:24;;;;;;;4.75;1.08;;;21.70;94.50;;;;;;5075716;28;20081;-80
2023/07/30 10:13:50;;;;;;;7.13;1.70;;;21.70;94.60;;;;;;5071614;28;20058;-74
2023/07/30 10:16:16;;;;;;;7.05;1.83;;;21.70;94.70;;;;;;5077116;28;20016;-74
2023/07/30 10:18:43;;;;;;;4.70;1.00;;;21.70;94.50;;;;;;5074377;28;20065;-73
2023/07/30 10:21:10;;;;;;;6.70;1.60;;;21.70;94.60;;;;;;5075480;28;20040;-75
2023/07/30 10:23:45;;;;;;;3.47;1.33;;;21.70;94.50;;;;;;5079514;28;20533;-75
2023/07/30 10:26:11;;;;;;;5.00;1.58;;;21.80;94.70;;;;;;5083963;28;20127;-75
2023/07/30 10:28:38;;;;;;;6.40;1.55;;;21.80;94.80;;;;;;5074697;28;20095;-74
2023/07/30 10:31:08;;;;;;;10.40;2.22;;;21.80;95.10;;;;;;5075274;28;20032;-77
2023/07/30 10:33:51;;;;;;;6.47;1.75;;;21.80;95.90;;;;;;5090069;28;20028;-76
2023/07/30 10:36:19;;;;;;;10.35;2.28;;;21.90;96.20;;;;;;5076127;28;20138;-75
2023/07/30 10:38:45;;;;;;;9.65;2.45;;;21.90;96.70;;;;;;5078239;28;20039;-73
2023/07/30 10:41:13;;;;;;;7.50;1.98;;;21.90;96.90;;;;;;5080822;28;20024;-74
2023/07/30 10:43:41;;;;;;;10.25;2.03;;;21.90;96.80;;;;;;5080207;28;20020;-75
2023/07/30 10:46:11;;;;;;;8.57;1.90;;;21.90;96.60;;;;;;5086177;28;20028;-74
2023/07/30 10:48:38;;;;;;;11.35;2.08;;;21.90;96.30;;;;;;5078810;28;20102;-73
2023/07/30 10:51:06;;;;;;;5.47;1.30;;;21.90;96.50;;;;;;5079929;28;20024;-74
2023/07/30 10:53:32;;;;;;;4.75;1.50;;;22.00;96.00;;;;;;5075135;28;20032;-73
2023/07/30 10:56:01;;;;;;;4.13;1.10;;;22.00;95.70;;;;;;5071817;28;20028;-73
2023/07/30 10:58:27;;;;;;;5.97;1.25;;;22.00;95.60;;;;;;5077086;28;20036;-72
2023/07/30 11:00:54;;;;;;;5.13;1.25;;;22.00;95.50;;;;;;5080894;28;20047;-73
2023/07/30 11:03:19;;;;;;;8.13;1.13;;;22.00;95.30;;;;;;5078307;28;20024;-73
2023/07/30 11:05:48;;;;;;;9.30;1.63;;;22.10;95.50;;;;;;5085316;28;20495;-73
2023/07/30 11:08:14;;;;;;;6.93;1.50;;;22.00;95.40;;;;;;5082310;28;20024;-73
2023/07/30 11:10:46;;;;;;;6.38;1.60;;;22.00;95.40;;;;;;5078062;28;20869;-73
2023/07/30 11:13:15;;;;;;;6.80;1.65;;;22.10;95.40;;;;;;5080573;28;20028;-74
2023/07/30 11:15:42;;;;;;;6.13;1.35;;;22.10;95.20;;;;;;5072146;28;20043;-73
2023/07/30 11:18:08;;;;;;;8.30;1.40;;;22.10;95.50;;;;;;5076102;28;20028;-72
2023/07/30 11:20:34;;;;;;;5.00;1.10;;;22.20;95.00;;;;;;5076811;28;20040;-74
2023/07/30 11:23:00;;;;;;;6.82;1.35;;;22.10;94.90;;;;;;5080402;28;20020;-72
2023/07/30 11:25:25;;;;;;;7.43;1.05;;;22.20;94.50;;;;;;5076836;28;20038;-73
2023/07/30 11:27:51;;;;;;;4.95;1.40;;;22.20;94.60;;;;;;5076929;28;20043;-72
2023/07/30 11:30:18;;;;;;;4.30;0.77;;;22.20;94.30;;;;;;5072683;28;20042;-73
2023/07/30 11:32:44;;;;;;;5.40;0.93;;;22.20;94.20;;;;;;5078524;28;20021;-73
2023/07/30 11:35:15;;;;;;;6.32;0.88;;;22.20;94.10;;;;;;5075965;28;20056;-72
2023/07/30 11:37:42;;;;;;;7.13;1.13;;;22.30;94.00;;;;;;5075672;28;20048;-74
2023/07/30 11:40:11;;;;;;;5.40;1.20;;;22.30;93.90;;;;;;5078148;28;20103;-75
2023/07/30 11:42:37;;;;;;;6.25;1.15;;;22.30;93.70;;;;;;5075288;28;20058;-74
2023/07/30 11:45:18;;;;;;;4.88;1.17;;;22.30;93.60;;;;;;5073749;28;20032;-75
2023/07/30 11:47:44;;;;;;;5.30;1.17;;;22.30;93.30;;;;;;5084459;28;20051;-74
2023/07/30 11:50:10;;;;;;;5.32;1.20;;;22.30;93.20;;;;;;5067760;28;20021;-74
2023/07/30 11:52:36;;;;;;;4.32;1.35;;;22.30;93.00;;;;;;5074851;28;20032;-74
2023/07/30 11:55:05;;;;;;;5.00;1.10;;;22.30;92.80;;;;;;5074613;28;20056;-74
2023/07/30 11:57:35;;;;;;;7.85;1.25;;;22.30;92.70;;;;;;5068961;28;20024;-75
2023/07/30 12:00:01;;;;;;;6.88;1.38;;;22.30;92.70;;;;;;5068804;28;20032;-67
2023/07/30 12:02:26;;;;;;;6.68;1.40;;;22.40;92.70;;;;;;5084118;28;20028;-66
2023/07/30 12:04:52;;;;;;;7.90;1.67;;;22.40;92.50;;;;;;5074098;28;20456;-65
2023/07/30 12:07:24;;;;;;;9.75;1.70;;;22.40;92.60;;;;;;5075803;28;20072;-67
2023/07/30 12:09:49;;;;;;;6.70;1.27;;;22.40;92.60;;;;;;5077747;28;20012;-71
2023/07/30 12:12:15;;;;;;;4.60;1.17;;;22.40;92.60;;;;;;5080171;28;20478;-69
2023/07/30 12:14:47;;;;;;;8.50;1.48;;;22.40;92.70;;;;;;5077805;28;20025;-71
2023/07/30 12:17:13;;;;;;;4.18;1.25;;;22.50;92.50;;;;;;5075196;28;20040;-70
2023/07/30 12:19:40;;;;;;;7.30;1.40;;;22.50;92.50;;;;;;5078152;28;20025;-67
2023/07/30 12:22:05;;;;;;;6.97;1.42;;;22.50;92.50;;;;;;5071207;28;20503;-68
2023/07/30 12:24:31;;;;;;;7.70;1.98;;;22.50;92.10;;;;;;5076686;28;20457;-65
2023/07/30 12:26:57;;;;;;;5.95;1.30;;;22.50;91.90;;;;;;5086511;28;20362;-65
2023/07/30 12:29:23;;;;;;;9.30;1.60;;;22.60;91.70;;;;;;5082562;28;20121;-67
2023/07/30 12:31:51;;;;;;;6.78;1.50;;;22.60;91.30;;;;;;5076947;28;20392;-68
2023/07/30 12:34:17;;;;;;;5.18;1.10;;;22.60;90.70;;;;;;5089459;28;20035;-67
2023/07/30 12:36:42;;;;;;;4.28;1.17;;;22.60;90.20;;;;;;5075908;28;20020;-68